createdAt,value
2018-12-26T00:00:53.620Z,21.27
2018-12-26T00:03:21.158Z,21.03
2018-12-26T00:05:48.632Z,24.33
2018-12-26T00:08:16.029Z,22.43
2018-12-26T00:10:43.391Z,24.90
2018-12-26T00:13:10.698Z,23.37
2018-12-26T00:15:38.058Z,22.60
2018-12-26T00:18:05.585Z,25.93
2018-12-26T00:20:32.864Z,20.67
2018-12-26T00:23:00.136Z,21.23
2018-12-26T00:25:27.450Z,18.17
2018-12-26T00:27:54.800Z,19.77
2018-12-26T00:30:22.166Z,21.00
2018-12-26T00:32:49.549Z,22.23
2018-12-26T00:35:16.887Z,23.93
2018-12-26T00:37:44.136Z,23.77
2018-12-26T00:40:11.640Z,25.17
2018-12-26T00:42:38.884Z,25.73
2018-12-26T00:45:06.129Z,24.37
2018-12-26T00:47:33.396Z,23.93
2018-12-26T00:50:00.676Z,21.43
2018-12-26T00:52:27.927Z,22.97
2018-12-26T00:54:55.551Z,23.70
2018-12-26T00:57:22.817Z,24.53
2018-12-26T00:59:50.104Z,23.43
2018-12-26T01:02:17.647Z,22.17
2018-12-26T01:04:44.989Z,24.03
2018-12-26T01:07:12.235Z,22.03
2018-12-26T01:09:39.537Z,22.73
2018-12-26T01:12:06.804Z,25.63
2018-12-26T01:14:34.355Z,23.57
2018-12-26T01:17:01.616Z,22.57
2018-12-26T01:19:28.967Z,23.87
2018-12-26T01:21:56.489Z,23.33
2018-12-26T01:24:24.029Z,24.00
2018-12-26T01:26:51.271Z,25.27
2018-12-26T01:29:18.515Z,26.50
2018-12-26T01:31:45.820Z,23.70
2018-12-26T01:34:13.065Z,21.90
2018-12-26T01:36:40.329Z,23.43
2018-12-26T01:39:07.501Z,22.57
2018-12-26T01:41:35.097Z,23.07
2018-12-26T01:44:02.388Z,25.47
2018-12-26T01:46:29.642Z,23.63
2018-12-26T01:48:56.967Z,25.17
2018-12-26T01:51:24.255Z,23.20
2018-12-26T01:53:51.520Z,23.50
2018-12-26T01:56:18.847Z,26.07
2018-12-26T01:58:46.138Z,23.77
2018-12-26T02:01:13.755Z,24.00
2018-12-26T02:03:41.030Z,25.00
2018-12-26T02:06:08.414Z,24.30
2018-12-26T02:08:35.751Z,22.93
2018-12-26T02:11:03.031Z,21.67
2018-12-26T02:13:30.292Z,22.70
2018-12-26T02:15:57.829Z,20.33
2018-12-26T02:18:25.089Z,20.73
2018-12-26T02:20:52.567Z,22.67
2018-12-26T02:23:20.167Z,22.77
2018-12-26T02:25:47.416Z,25.30
2018-12-26T02:28:14.958Z,22.70
2018-12-26T02:30:42.354Z,24.00
2018-12-26T02:33:09.890Z,22.53
2018-12-26T02:35:37.182Z,22.07
2018-12-26T02:38:04.516Z,21.53
2018-12-26T02:40:31.797Z,18.93
2018-12-26T02:42:59.154Z,18.37
2018-12-26T02:45:26.709Z,20.97
2018-12-26T02:47:54.056Z,17.37
2018-12-26T02:50:21.871Z,21.00
2018-12-26T02:52:49.236Z,19.83
2018-12-26T02:55:16.750Z,19.07
2018-12-26T02:57:44.367Z,18.63
2018-12-26T03:00:11.753Z,17.00
2018-12-26T03:02:39.137Z,19.37
2018-12-26T03:05:06.751Z,19.30
2018-12-26T03:07:34.288Z,19.23
2018-12-26T03:10:01.540Z,19.73
2018-12-26T03:12:29.087Z,20.03
2018-12-26T03:14:56.334Z,20.00
2018-12-26T03:17:23.879Z,16.97
2018-12-26T03:19:51.489Z,18.43
2018-12-26T03:22:19.041Z,19.43
2018-12-26T03:24:46.408Z,19.53
2018-12-26T03:27:13.775Z,18.50
2018-12-26T03:29:41.030Z,19.63
2018-12-26T03:32:08.284Z,21.17
2018-12-26T03:34:35.658Z,19.57
2018-12-26T03:37:02.894Z,24.33
2018-12-26T03:39:30.178Z,21.27
2018-12-26T03:41:57.467Z,23.60
2018-12-26T03:44:24.820Z,21.43
2018-12-26T03:46:52.091Z,21.20
2018-12-26T03:49:19.332Z,20.37
2018-12-26T03:51:46.600Z,21.67
2018-12-26T03:54:13.909Z,22.03
2018-12-26T03:56:41.284Z,19.37
2018-12-26T03:59:08.623Z,20.83
2018-12-26T04:01:35.883Z,23.23
2018-12-26T04:04:03.154Z,20.97
2018-12-26T04:06:30.512Z,22.17
2018-12-26T04:08:58.140Z,22.27
2018-12-26T04:11:25.507Z,21.00
2018-12-26T04:13:52.859Z,20.97
2018-12-26T04:16:20.492Z,24.27
2018-12-26T04:18:48.213Z,25.27
2018-12-26T04:21:15.484Z,25.07
2018-12-26T04:23:42.726Z,24.37
2018-12-26T04:26:10.077Z,23.50
2018-12-26T04:28:37.338Z,24.10
2018-12-26T04:31:04.627Z,24.57
2018-12-26T04:33:31.979Z,22.83
2018-12-26T04:35:59.266Z,21.77
2018-12-26T04:38:26.546Z,22.60
2018-12-26T04:40:53.791Z,23.07
2018-12-26T04:43:21.047Z,24.83
2018-12-26T04:45:48.307Z,21.17
2018-12-26T04:48:15.545Z,22.27
2018-12-26T04:50:43.072Z,21.77
2018-12-26T04:53:10.341Z,24.60
2018-12-26T04:55:37.694Z,23.93
2018-12-26T04:58:05.046Z,26.37
2018-12-26T05:00:32.334Z,24.47
2018-12-26T05:02:59.679Z,27.87
2018-12-26T05:05:26.977Z,23.20
2018-12-26T05:07:54.345Z,23.40
2018-12-26T05:10:21.623Z,23.50
2018-12-26T05:12:48.880Z,24.03
2018-12-26T05:15:16.242Z,22.83
2018-12-26T05:17:43.789Z,20.53
2018-12-26T05:20:11.041Z,22.37
2018-12-26T05:22:38.437Z,23.00
2018-12-26T05:25:05.777Z,22.90
2018-12-26T05:27:34.243Z,23.40
2018-12-26T05:30:02.395Z,25.30
2018-12-26T05:32:29.903Z,21.30
2018-12-26T05:34:57.146Z,24.53
2018-12-26T05:37:24.393Z,19.97
2018-12-26T05:39:51.899Z,20.40
2018-12-26T05:42:19.170Z,20.13
2018-12-26T05:44:46.698Z,21.17
2018-12-26T05:47:13.964Z,21.20
2018-12-26T05:49:41.244Z,21.60
2018-12-26T05:52:08.931Z,20.70
2018-12-26T05:54:36.174Z,23.37
2018-12-26T05:57:03.561Z,21.73
2018-12-26T05:59:30.883Z,22.90
2018-12-26T06:01:58.126Z,23.17
2018-12-26T06:04:26.075Z,22.97
2018-12-26T06:06:53.326Z,21.30
2018-12-26T06:09:20.505Z,20.57
2018-12-26T06:11:47.857Z,19.33
2018-12-26T06:14:15.106Z,21.13
2018-12-26T06:16:42.380Z,19.87
2018-12-26T06:19:10.088Z,21.53
2018-12-26T06:21:37.448Z,20.40
2018-12-26T06:24:04.714Z,18.43
2018-12-26T06:26:31.961Z,21.27
2018-12-26T06:28:59.227Z,21.77
2018-12-26T06:31:26.755Z,22.17
2018-12-26T06:33:54.281Z,22.13
2018-12-26T06:36:21.548Z,18.93
2018-12-26T06:38:48.869Z,20.83
2018-12-26T06:41:16.143Z,22.50
2018-12-26T06:43:43.398Z,21.93
2018-12-26T06:46:10.639Z,20.43
2018-12-26T06:48:37.913Z,19.97
2018-12-26T06:51:05.432Z,18.37
2018-12-26T06:53:32.677Z,18.27
2018-12-26T06:55:59.943Z,21.53
2018-12-26T06:58:27.577Z,17.47
2018-12-26T07:00:54.858Z,16.47
2018-12-26T07:03:22.204Z,18.50
2018-12-26T07:05:49.454Z,17.73
2018-12-26T07:08:16.730Z,19.53
2018-12-26T07:10:45.624Z,20.07
2018-12-26T07:13:12.982Z,18.00
2018-12-26T07:15:40.621Z,22.60
2018-12-26T07:18:09.072Z,18.27
2018-12-26T07:20:36.435Z,19.00
2018-12-26T07:23:03.975Z,20.90
2018-12-26T07:25:31.552Z,21.37
2018-12-26T07:27:59.140Z,18.83
2018-12-26T07:30:26.383Z,18.07
2018-12-26T07:32:53.648Z,18.90
2018-12-26T07:35:27.021Z,18.80
2018-12-26T07:37:54.410Z,18.60
2018-12-26T07:40:21.787Z,19.73
2018-12-26T07:42:49.456Z,18.17
2018-12-26T07:45:16.800Z,16.03
2018-12-26T07:47:44.067Z,17.20
2018-12-26T07:50:11.358Z,20.10
2018-12-26T07:52:38.882Z,17.77
2018-12-26T07:55:06.145Z,16.93
2018-12-26T07:57:33.609Z,15.63
2018-12-26T08:00:00.881Z,15.97
2018-12-26T08:02:28.218Z,16.27
2018-12-26T08:04:55.620Z,15.47
2018-12-26T08:07:23.176Z,14.50
2018-12-26T08:09:50.785Z,14.17
2018-12-26T08:12:18.057Z,16.67
2018-12-26T08:14:45.529Z,15.17
2018-12-26T08:17:12.809Z,15.03
2018-12-26T08:19:40.160Z,14.60
2018-12-26T08:22:07.694Z,15.53
2018-12-26T08:24:35.053Z,13.37
2018-12-26T08:27:02.356Z,14.40
2018-12-26T08:29:29.609Z,14.40
2018-12-26T08:31:56.878Z,13.10
2018-12-26T08:34:24.156Z,13.77
2018-12-26T08:36:51.419Z,13.53
2018-12-26T08:39:19.038Z,13.37
2018-12-26T08:41:46.557Z,12.97
2018-12-26T08:44:13.823Z,12.83
2018-12-26T08:46:41.096Z,12.53
2018-12-26T08:49:08.352Z,13.63
2018-12-26T08:51:35.917Z,11.00
2018-12-26T08:54:03.209Z,13.03
2018-12-26T08:56:30.562Z,12.23
2018-12-26T08:58:57.852Z,14.40
2018-12-26T09:01:25.164Z,11.93
2018-12-26T09:03:52.794Z,13.33
2018-12-26T09:06:20.134Z,11.90
2018-12-26T09:08:47.670Z,12.90
2018-12-26T09:11:14.946Z,12.53
2018-12-26T09:13:42.194Z,13.97
2018-12-26T09:16:09.634Z,13.53
2018-12-26T09:18:37.046Z,13.43
2018-12-26T09:21:04.399Z,11.83
2018-12-26T09:23:31.769Z,12.43
2018-12-26T09:26:00.561Z,12.50
2018-12-26T09:28:28.278Z,12.20
2018-12-26T09:30:55.815Z,12.13
2018-12-26T09:33:23.166Z,10.67
2018-12-26T09:35:50.553Z,10.97
2018-12-26T09:38:17.932Z,10.47
2018-12-26T09:40:45.284Z,11.87
2018-12-26T09:43:12.807Z,14.40
2018-12-26T09:45:40.098Z,13.37
2018-12-26T09:48:07.336Z,12.53
2018-12-26T09:50:34.605Z,11.20
2018-12-26T09:53:01.888Z,12.33
2018-12-26T09:55:29.167Z,12.20
2018-12-26T09:57:56.815Z,13.87
2018-12-26T10:00:43.554Z,13.13
2018-12-26T10:03:10.937Z,13.93
2018-12-26T10:05:38.215Z,14.17
2018-12-26T10:08:05.752Z,13.10
2018-12-26T10:10:33.018Z,13.60
2018-12-26T10:13:00.424Z,13.27
2018-12-26T10:15:27.782Z,14.23
2018-12-26T10:17:55.193Z,11.50
2018-12-26T10:20:22.660Z,11.20
2018-12-26T10:22:50.258Z,11.77
2018-12-26T10:25:17.556Z,11.00
2018-12-26T10:27:45.219Z,12.53
2018-12-26T10:30:12.575Z,12.40
2018-12-26T10:32:40.197Z,11.23
2018-12-26T10:35:07.460Z,12.80
2018-12-26T10:40:28.242Z,11.17
2018-12-26T10:42:55.599Z,11.27
2018-12-26T10:45:22.969Z,10.20
2018-12-26T10:47:50.264Z,11.30
2018-12-26T10:50:17.527Z,10.33
2018-12-26T10:52:44.879Z,10.00
2018-12-26T10:55:12.449Z,12.83
2018-12-26T10:57:39.714Z,10.17
2018-12-26T11:00:08.014Z,10.77
2018-12-26T11:02:35.302Z,11.10
2018-12-26T11:05:02.573Z,11.40
2018-12-26T11:07:30.142Z,10.93
2018-12-26T11:09:57.504Z,12.87
2018-12-26T11:12:24.903Z,12.07
2018-12-26T11:14:52.224Z,11.67
2018-12-26T11:17:19.590Z,10.83
2018-12-26T11:19:46.960Z,11.37
2018-12-26T11:22:14.536Z,11.87
2018-12-26T11:25:01.394Z,12.07
2018-12-26T11:27:29.011Z,9.63
2018-12-26T11:29:56.360Z,8.20
2018-12-26T11:32:23.945Z,10.77
2018-12-26T11:34:51.233Z,11.23
2018-12-26T11:37:18.742Z,11.10
2018-12-26T11:39:46.020Z,11.30
2018-12-26T11:42:13.308Z,11.20
2018-12-26T11:44:40.701Z,9.80
2018-12-26T11:47:08.016Z,10.37
2018-12-26T11:49:35.292Z,10.47
2018-12-26T11:52:02.648Z,10.70
2018-12-26T11:54:30.105Z,10.97
2018-12-26T11:56:57.431Z,10.77
2018-12-26T11:59:27.368Z,10.83
2018-12-26T12:01:53.865Z,13.03
2018-12-26T12:04:21.302Z,11.60
2018-12-26T12:06:48.628Z,11.53
2018-12-26T12:09:16.233Z,11.53
2018-12-26T12:11:43.477Z,11.97
2018-12-26T12:14:10.929Z,10.87
2018-12-26T12:16:38.219Z,13.00
2018-12-26T12:19:05.471Z,10.13
2018-12-26T12:21:32.787Z,11.50
2018-12-26T12:24:00.509Z,17.17
2018-12-26T12:26:28.432Z,12.73
2018-12-26T12:28:55.833Z,18.30
2018-12-26T12:31:23.472Z,13.87
2018-12-26T12:33:50.825Z,17.67
2018-12-26T12:36:18.146Z,12.30
2018-12-26T12:38:45.513Z,12.77
2018-12-26T12:41:12.796Z,18.10
2018-12-26T12:43:40.091Z,11.50
2018-12-26T12:46:07.568Z,12.03
2018-12-26T12:48:35.491Z,12.30
2018-12-26T12:51:02.963Z,13.27
2018-12-26T12:53:30.319Z,12.53
2018-12-26T12:55:57.925Z,12.77
2018-12-26T12:58:25.233Z,12.90
2018-12-26T13:00:52.786Z,12.17
2018-12-26T13:03:20.141Z,13.20
2018-12-26T13:05:47.505Z,13.83
2018-12-26T13:08:14.782Z,13.43
2018-12-26T13:10:42.327Z,12.57
2018-12-26T13:13:10.171Z,13.07
2018-12-26T13:15:37.702Z,12.13
2018-12-26T13:18:04.962Z,10.90
2018-12-26T13:20:32.317Z,11.83
2018-12-26T13:22:59.850Z,10.87
2018-12-26T13:25:27.126Z,11.77
2018-12-26T13:27:54.414Z,11.13
2018-12-26T13:30:21.878Z,10.53
2018-12-26T13:32:49.261Z,13.33
2018-12-26T13:35:16.619Z,11.97
2018-12-26T13:37:44.382Z,11.73
2018-12-26T13:40:11.699Z,12.93
2018-12-26T13:42:38.980Z,12.87
2018-12-26T13:45:06.326Z,13.03
2018-12-26T13:47:33.873Z,12.47
2018-12-26T13:50:01.240Z,13.67
2018-12-26T13:52:28.837Z,11.33
2018-12-26T13:54:56.270Z,11.63
2018-12-26T13:57:23.776Z,11.20
2018-12-26T13:59:51.313Z,11.83
2018-12-26T14:02:18.619Z,11.73
2018-12-26T14:04:46.254Z,12.43
2018-12-26T14:07:13.602Z,12.50
2018-12-26T14:09:40.995Z,13.53
2018-12-26T14:12:08.384Z,12.97
2018-12-26T14:14:35.850Z,11.97
2018-12-26T14:17:03.200Z,12.53
2018-12-26T14:19:30.536Z,12.57
2018-12-26T14:21:57.872Z,13.23
2018-12-26T14:24:26.281Z,12.43
2018-12-26T14:26:53.706Z,11.63
2018-12-26T14:29:21.501Z,10.20
2018-12-26T14:31:48.786Z,11.00
2018-12-26T14:34:16.139Z,11.30
2018-12-26T14:36:43.669Z,12.80
2018-12-26T14:39:11.304Z,12.30
2018-12-26T14:41:38.607Z,12.67
2018-12-26T14:44:05.864Z,12.97
2018-12-26T14:46:33.154Z,12.17
2018-12-26T14:49:00.447Z,11.70
2018-12-26T14:51:27.735Z,12.37
2018-12-26T14:53:55.056Z,11.23
2018-12-26T14:56:22.435Z,10.97
2018-12-26T14:58:49.786Z,11.07
2018-12-26T15:01:17.064Z,10.53
2018-12-26T15:03:44.342Z,13.07
2018-12-26T15:06:11.629Z,17.30
2018-12-26T15:08:38.888Z,12.83
2018-12-26T15:11:06.173Z,12.13
2018-12-26T15:13:33.472Z,12.20
2018-12-26T15:16:00.846Z,12.43
2018-12-26T15:18:28.193Z,12.73
2018-12-26T15:20:55.517Z,14.70
2018-12-26T15:23:22.882Z,13.10
2018-12-26T15:25:50.453Z,15.87
2018-12-26T15:28:18.131Z,13.47
2018-12-26T15:30:45.508Z,13.03
2018-12-26T15:33:12.901Z,13.27
2018-12-26T15:35:40.264Z,13.13
2018-12-26T15:38:08.097Z,14.23
2018-12-26T15:40:35.367Z,13.27
2018-12-26T15:43:03.013Z,14.27
2018-12-26T15:45:30.604Z,13.63
2018-12-26T15:47:57.905Z,15.50
2018-12-26T15:50:25.198Z,12.67
2018-12-26T15:52:52.900Z,14.63
2018-12-26T15:55:20.284Z,14.43
2018-12-26T15:57:47.730Z,14.90
2018-12-26T16:00:15.078Z,15.50
2018-12-26T16:02:42.455Z,14.70
2018-12-26T16:05:09.820Z,13.97
2018-12-26T16:07:37.184Z,14.77
2018-12-26T16:10:05.420Z,13.23
2018-12-26T16:12:33.125Z,15.83
2018-12-26T16:15:00.501Z,16.43
2018-12-26T16:17:27.851Z,16.17
2018-12-26T16:19:55.528Z,14.33
2018-12-26T16:22:22.934Z,15.90
2018-12-26T16:24:50.475Z,16.43
2018-12-26T16:27:17.815Z,13.83
2018-12-26T16:29:45.133Z,16.13
2018-12-26T16:32:12.756Z,16.60
2018-12-26T16:34:40.147Z,19.23
2018-12-26T16:37:07.503Z,18.90
2018-12-26T16:39:35.857Z,15.80
2018-12-26T16:42:03.333Z,16.63
2018-12-26T16:44:30.708Z,19.60
2018-12-26T16:46:57.991Z,20.60
2018-12-26T16:49:25.248Z,19.30
2018-12-26T16:51:52.907Z,19.37
2018-12-26T16:54:20.284Z,17.90
2018-12-26T16:56:47.541Z,19.90
2018-12-26T16:59:15.055Z,19.17
2018-12-26T17:01:42.377Z,20.27
2018-12-26T17:04:09.818Z,20.40
2018-12-26T17:06:37.121Z,20.53
2018-12-26T17:09:05.795Z,20.30
2018-12-26T17:11:33.084Z,20.43
2018-12-26T17:14:00.447Z,20.37
2018-12-26T17:16:27.803Z,18.67
2018-12-26T17:18:55.354Z,19.67
2018-12-26T17:21:22.596Z,18.97
2018-12-26T17:23:49.859Z,19.87
2018-12-26T17:26:17.505Z,19.80
2018-12-26T17:28:44.803Z,20.67
2018-12-26T17:31:12.404Z,19.27
2018-12-26T17:33:39.927Z,20.07
2018-12-26T17:36:07.191Z,19.77
2018-12-26T17:38:34.699Z,18.80
2018-12-26T17:41:02.238Z,19.30
2018-12-26T17:43:29.502Z,22.50
2018-12-26T17:45:56.791Z,20.67
2018-12-26T17:48:23.970Z,23.10
2018-12-26T17:50:51.570Z,21.97
2018-12-26T17:53:38.462Z,22.53
2018-12-26T17:56:27.094Z,20.73
2018-12-26T17:59:17.069Z,22.57
2018-12-26T18:01:55.828Z,21.23
2018-12-26T18:04:23.228Z,23.17
2018-12-26T18:06:50.564Z,21.53
2018-12-26T18:09:17.828Z,20.80
2018-12-26T18:11:45.122Z,23.43
2018-12-26T18:14:12.471Z,23.43
2018-12-26T18:16:39.752Z,21.23
2018-12-26T18:19:07.035Z,19.30
2018-12-26T18:21:34.393Z,20.80
2018-12-26T18:24:01.730Z,22.23
2018-12-26T18:26:29.099Z,25.67
2018-12-26T18:28:56.474Z,23.80
2018-12-26T18:31:23.869Z,22.77
2018-12-26T18:33:51.166Z,23.47
2018-12-26T18:36:18.504Z,24.73
2018-12-26T18:38:45.753Z,25.87
2018-12-26T18:41:13.050Z,24.30
2018-12-26T18:43:40.326Z,24.50
2018-12-26T18:46:07.613Z,24.73
2018-12-26T18:48:35.280Z,24.97
2018-12-26T18:51:02.578Z,23.57
2018-12-26T18:53:29.924Z,24.47
2018-12-26T18:55:57.200Z,24.30
2018-12-26T18:58:24.490Z,24.83
2018-12-26T19:00:51.807Z,24.10
2018-12-26T19:03:19.158Z,25.40
2018-12-26T19:05:46.445Z,27.73
2018-12-26T19:08:13.692Z,28.97
2018-12-26T19:10:41.067Z,22.33
2018-12-26T19:13:08.635Z,24.47
2018-12-26T19:15:35.889Z,23.43
2018-12-26T19:18:03.422Z,25.30
2018-12-26T19:20:30.711Z,22.60
2018-12-26T19:22:57.955Z,25.33
2018-12-26T19:25:25.204Z,23.43
2018-12-26T19:27:52.525Z,24.77
2018-12-26T19:30:19.828Z,24.47
2018-12-26T19:32:47.369Z,25.30
2018-12-26T19:35:14.702Z,24.67
2018-12-26T19:37:42.005Z,24.30
2018-12-26T19:40:09.460Z,24.30
2018-12-26T19:42:37.413Z,24.03
2018-12-26T19:45:05.432Z,25.20
2018-12-26T19:47:33.108Z,24.83
2018-12-26T19:50:04.806Z,23.80
2018-12-26T19:52:29.932Z,25.20
2018-12-26T19:54:57.280Z,25.97
2018-12-26T19:57:24.548Z,23.93
2018-12-26T19:59:51.929Z,25.37
2018-12-26T20:02:19.293Z,27.10
2018-12-26T20:04:46.566Z,24.47
2018-12-26T20:07:13.947Z,25.50
2018-12-26T20:09:41.508Z,25.70
2018-12-26T20:12:08.969Z,28.83
2018-12-26T20:14:36.287Z,27.37
2018-12-26T20:17:03.569Z,28.60
2018-12-26T20:19:30.923Z,28.77
2018-12-26T20:21:58.320Z,29.50
2018-12-26T20:24:25.620Z,31.67
2018-12-26T20:26:52.944Z,28.37
2018-12-26T20:29:20.338Z,27.33
2018-12-26T20:31:47.701Z,28.20
2018-12-26T20:34:15.233Z,27.57
2018-12-26T20:36:42.646Z,28.80
2018-12-26T20:39:10.269Z,28.90
2018-12-26T20:41:37.640Z,27.77
2018-12-26T20:44:04.953Z,28.73
2018-12-26T20:46:32.536Z,25.57
2018-12-26T20:48:59.853Z,27.33
2018-12-26T20:51:27.205Z,28.23
2018-12-26T20:53:54.600Z,28.67
2018-12-26T20:56:22.293Z,27.90
2018-12-26T20:58:49.659Z,31.07
2018-12-26T21:01:36.427Z,33.43
2018-12-26T21:04:03.771Z,31.80
2018-12-26T21:06:31.031Z,32.93
2018-12-26T21:08:58.416Z,30.77
2018-12-26T21:11:26.011Z,32.43
2018-12-26T21:13:53.375Z,32.70
2018-12-26T21:16:20.786Z,32.23
2018-12-26T21:18:48.179Z,32.03
2018-12-26T21:21:15.427Z,34.47
2018-12-26T21:23:42.778Z,32.37
2018-12-26T21:26:10.292Z,33.43
2018-12-26T21:28:37.687Z,31.33
2018-12-26T21:31:05.310Z,27.60
2018-12-26T21:33:32.858Z,26.13
2018-12-26T21:36:00.123Z,27.70
2018-12-26T21:38:27.393Z,29.53
2018-12-26T21:40:54.750Z,27.23
2018-12-26T21:43:22.130Z,30.97
2018-12-26T21:45:49.485Z,32.03
2018-12-26T21:48:16.861Z,28.57
2018-12-26T21:50:44.947Z,27.43
2018-12-26T21:53:12.547Z,28.00
2018-12-26T21:55:39.933Z,28.27
2018-12-26T21:58:07.427Z,26.53
2018-12-26T22:00:34.696Z,28.97
2018-12-26T22:03:02.068Z,26.83
2018-12-26T22:05:29.366Z,30.33
2018-12-26T22:07:56.626Z,27.73
2018-12-26T22:10:23.978Z,29.40
2018-12-26T22:12:51.256Z,27.43
2018-12-26T22:15:18.817Z,26.20
2018-12-26T22:17:46.103Z,25.23
2018-12-26T22:20:13.474Z,27.73
2018-12-26T22:22:40.729Z,28.13
2018-12-26T22:25:08.066Z,29.00
2018-12-26T22:27:35.420Z,26.87
2018-12-26T22:30:02.892Z,28.13
2018-12-26T22:32:30.727Z,27.07
2018-12-26T22:34:58.179Z,27.17
2018-12-26T22:37:25.499Z,27.10
2018-12-26T22:39:52.866Z,27.97
2018-12-26T22:42:20.139Z,28.80
2018-12-26T22:44:47.387Z,26.97
2018-12-26T22:47:14.659Z,25.47
2018-12-26T22:49:41.911Z,24.63
2018-12-26T22:52:09.208Z,23.90
2018-12-26T22:54:36.753Z,24.87
2018-12-26T22:57:04.022Z,23.30
2018-12-26T22:59:31.275Z,26.50
2018-12-26T23:01:58.561Z,25.87
2018-12-26T23:04:25.811Z,26.23
2018-12-26T23:06:53.443Z,26.73
2018-12-26T23:09:20.748Z,26.17
2018-12-26T23:11:48.105Z,26.07
2018-12-26T23:14:15.361Z,23.30
2018-12-26T23:16:42.943Z,26.63
2018-12-26T23:19:10.389Z,25.47
2018-12-26T23:21:37.903Z,26.03
2018-12-26T23:24:05.265Z,22.93
2018-12-26T23:26:32.874Z,22.13
2018-12-26T23:29:00.155Z,24.57
2018-12-26T23:31:27.683Z,29.00
2018-12-26T23:33:54.936Z,28.50
2018-12-26T23:36:22.447Z,27.13
2018-12-26T23:38:49.690Z,27.30
2018-12-26T23:41:17.238Z,23.07
2018-12-26T23:43:44.594Z,20.77
2018-12-26T23:46:11.856Z,18.83
2018-12-26T23:48:39.199Z,18.97
2018-12-26T23:51:06.731Z,20.47
2018-12-26T23:53:34.308Z,21.20
2018-12-26T23:56:02.060Z,21.40
2018-12-26T23:58:29.347Z,23.40
